createdAt,value
2023-02-13T00:02:18.979Z,62.30
2023-02-13T00:07:21.050Z,54.67
2023-02-13T00:12:23.042Z,59.30
2023-02-13T00:17:25.493Z,58.67
2023-02-13T00:22:27.513Z,60.00
2023-02-13T00:27:29.614Z,56.85
2023-02-13T00:32:31.821Z,60.38
2023-02-13T00:37:34.461Z,57.90
2023-02-13T00:42:36.465Z,56.30
2023-02-13T00:47:38.491Z,57.88
2023-02-13T00:52:40.536Z,61.85
2023-02-13T00:57:42.733Z,57.78
2023-02-13T01:02:47.782Z,61.85
2023-02-13T01:07:50.620Z,64.10
2023-02-13T01:12:53.656Z,57.08
2023-02-13T01:17:57.510Z,62.85
2023-02-13T01:23:01.517Z,55.83
2023-02-13T01:28:03.846Z,59.65
2023-02-13T01:33:05.879Z,62.97
2023-02-13T01:38:08.476Z,64.50
2023-02-13T01:43:12.144Z,60.55
2023-02-13T01:48:26.389Z,67.35
2023-02-13T01:53:37.031Z,60.70
2023-02-13T01:58:44.070Z,59.95
2023-02-13T02:03:54.968Z,60.08
2023-02-13T02:09:05.187Z,66.18
2023-02-13T02:14:07.283Z,58.30
2023-02-13T02:19:31.191Z,61.83
2023-02-13T02:24:47.666Z,59.00
2023-02-13T02:30:15.720Z,60.65
2023-02-13T02:35:42.664Z,65.35
2023-02-13T02:40:55.375Z,59.22
2023-02-13T02:46:10.605Z,61.08
2023-02-13T02:51:26.606Z,59.47
2023-02-13T02:56:38.076Z,63.88
2023-02-13T03:02:00.490Z,59.08
2023-02-13T03:07:07.844Z,61.88
2023-02-13T03:12:31.492Z,67.15
2023-02-13T03:17:52.518Z,65.70
2023-02-13T03:23:16.534Z,59.28
2023-02-13T03:28:40.162Z,61.85
2023-02-13T03:34:01.073Z,62.70
2023-02-13T03:39:12.471Z,57.90
2023-02-13T03:44:39.234Z,61.92
2023-02-13T03:50:07.956Z,59.80
2023-02-13T03:55:35.796Z,64.55
2023-02-13T04:00:46.299Z,61.85
2023-02-13T04:05:54.393Z,62.20
2023-02-13T04:11:07.245Z,69.40
2023-02-13T04:16:13.310Z,65.32
2023-02-13T04:21:15.622Z,64.75
2023-02-13T04:26:21.002Z,61.58
2023-02-13T04:31:23.187Z,63.25
2023-02-13T04:36:25.644Z,68.88
2023-02-13T04:41:27.647Z,71.88
2023-02-13T04:46:29.776Z,66.35
2023-02-13T04:51:31.817Z,73.03
2023-02-13T04:56:34.045Z,67.15
2023-02-13T05:01:36.200Z,70.45
2023-02-13T05:06:38.478Z,67.25
2023-02-13T05:11:40.684Z,64.65
2023-02-13T05:16:42.739Z,64.10
2023-02-13T05:22:03.226Z,63.08
2023-02-13T05:27:05.528Z,65.23
2023-02-13T05:32:07.666Z,62.05
2023-02-13T05:37:09.716Z,60.35
2023-02-13T05:42:11.820Z,67.20
2023-02-13T05:47:14.178Z,57.50
2023-02-13T05:52:16.244Z,60.08
2023-02-13T05:57:18.763Z,69.88
2023-02-13T06:02:20.811Z,75.63
2023-02-13T06:07:22.842Z,70.18
2023-02-13T06:12:25.161Z,74.30
2023-02-13T06:17:27.214Z,72.72
2023-02-13T06:22:29.241Z,75.28
2023-02-13T06:27:31.307Z,72.38
2023-02-13T06:32:33.418Z,74.93
2023-02-13T06:37:35.626Z,76.60
2023-02-13T06:42:37.602Z,72.20
2023-02-13T06:47:44.914Z,87.65
2023-02-13T06:52:49.475Z,77.05
2023-02-13T06:57:51.622Z,83.38
2023-02-13T07:02:53.950Z,79.28
2023-02-13T07:07:56.105Z,81.28
2023-02-13T07:13:05.696Z,78.82
2023-02-13T07:18:08.998Z,64.67
2023-02-13T07:23:11.075Z,75.72
2023-02-13T07:28:13.543Z,62.65
2023-02-13T07:33:15.669Z,67.00
2023-02-13T07:38:18.709Z,69.05
2023-02-13T07:43:21.100Z,67.43
2023-02-13T07:48:24.411Z,72.00
2023-02-13T07:53:26.700Z,68.28
2023-02-13T07:58:28.678Z,62.60
2023-02-13T08:03:30.833Z,68.78
2023-02-13T08:08:33.054Z,70.90
2023-02-13T08:13:35.125Z,75.93
2023-02-13T08:18:37.274Z,66.75
2023-02-13T08:23:40.281Z,68.65
2023-02-13T08:28:42.626Z,68.45
2023-02-13T08:33:44.934Z,70.28
2023-02-13T08:38:48.039Z,71.80
2023-02-13T08:43:50.396Z,71.82
2023-02-13T08:48:52.541Z,70.90
2023-02-13T08:53:54.614Z,69.63
2023-02-13T08:58:56.800Z,66.20
2023-02-13T09:03:59.020Z,59.58
2023-02-13T09:09:01.212Z,62.75
2023-02-13T09:14:03.577Z,58.10
2023-02-13T09:19:05.912Z,52.97
2023-02-13T09:24:09.503Z,60.03
2023-02-13T09:29:11.522Z,55.13
2023-02-13T09:34:13.747Z,54.55
2023-02-13T09:39:15.807Z,54.30
2023-02-13T09:44:37.492Z,52.17
2023-02-13T09:49:43.771Z,49.15
2023-02-13T09:54:46.002Z,48.45
2023-02-13T10:00:02.241Z,49.45
2023-02-13T10:05:27.532Z,46.23
2023-02-13T10:11:02.955Z,48.40
2023-02-13T10:16:46.124Z,41.00
2023-02-13T10:22:23.825Z,41.03
2023-02-13T10:27:30.125Z,38.08
2023-02-13T10:32:41.253Z,37.08
2023-02-13T10:37:43.957Z,35.50
2023-02-13T10:43:11.757Z,38.80
2023-02-13T10:48:54.150Z,39.25
2023-02-13T10:54:22.005Z,39.28
2023-02-13T10:59:51.946Z,33.55
2023-02-13T11:05:00.756Z,35.95
2023-02-13T11:10:13.816Z,37.28
2023-02-13T11:15:29.109Z,41.10
2023-02-13T11:20:33.916Z,33.90
2023-02-13T11:25:36.018Z,35.63
2023-02-13T11:30:39.065Z,30.63
2023-02-13T11:35:41.123Z,29.98
2023-02-13T11:40:46.024Z,30.80
2023-02-13T11:46:01.545Z,28.23
2023-02-13T11:51:04.512Z,29.05
2023-02-13T11:56:13.534Z,26.38
2023-02-13T12:01:21.400Z,23.90
2023-02-13T12:06:23.453Z,25.50
2023-02-13T12:11:37.556Z,22.92
2023-02-13T12:16:47.350Z,20.77
2023-02-13T12:22:34.663Z,18.40
2023-02-13T12:27:55.702Z,20.42
2023-02-13T12:33:01.026Z,19.37
2023-02-13T12:38:11.909Z,17.33
2023-02-13T12:43:26.190Z,19.27
2023-02-13T12:49:09.151Z,18.75
2023-02-13T12:54:14.272Z,19.40
2023-02-13T12:59:51.642Z,20.50
2023-02-13T13:05:06.430Z,17.67
2023-02-13T13:10:33.881Z,16.48
2023-02-13T13:16:05.126Z,17.27
2023-02-13T13:21:19.080Z,18.47
2023-02-13T13:26:37.141Z,14.98
2023-02-13T13:31:39.693Z,15.48
2023-02-13T13:37:00.683Z,15.48
2023-02-13T13:42:31.080Z,15.05
2023-02-13T13:47:48.811Z,16.92
2023-02-13T13:53:10.580Z,17.30
2023-02-13T13:58:33.065Z,16.13
2023-02-13T14:03:36.622Z,14.07
2023-02-13T14:08:41.755Z,13.55
2023-02-13T14:13:45.923Z,14.52
2023-02-13T14:18:48.184Z,14.55
2023-02-13T14:23:53.073Z,13.70
2023-02-13T14:28:59.581Z,14.60
2023-02-13T14:34:05.898Z,14.75
2023-02-13T14:39:26.179Z,13.45
2023-02-13T14:44:36.244Z,13.63
2023-02-13T14:49:42.361Z,14.73
2023-02-13T14:54:55.230Z,13.15
2023-02-13T15:00:01.111Z,11.65
2023-02-13T15:05:06.988Z,12.98
2023-02-13T15:10:40.277Z,13.77
2023-02-13T15:15:42.431Z,13.88
2023-02-13T15:20:45.051Z,14.75
2023-02-13T15:25:47.125Z,14.70
2023-02-13T15:31:03.063Z,16.23
2023-02-13T15:36:06.785Z,15.13
2023-02-13T15:41:11.608Z,16.20
2023-02-13T15:46:21.043Z,17.20
2023-02-13T15:51:25.809Z,18.65
2023-02-13T15:56:29.304Z,16.33
2023-02-13T16:01:32.922Z,17.08
2023-02-13T16:06:35.869Z,20.23
2023-02-13T16:11:39.571Z,17.45
2023-02-13T16:17:01.535Z,18.75
2023-02-13T16:22:20.527Z,17.15
2023-02-13T16:27:27.518Z,17.52
2023-02-13T16:32:32.662Z,23.23
2023-02-13T16:37:34.855Z,22.58
2023-02-13T16:42:36.861Z,20.77
2023-02-13T16:47:38.945Z,24.80
2023-02-13T16:52:41.075Z,22.15
2023-02-13T16:57:44.327Z,20.83
2023-02-13T17:02:49.043Z,23.42
2023-02-13T17:07:54.395Z,21.40
2023-02-13T17:13:00.193Z,24.40
2023-02-13T17:18:02.433Z,21.30
2023-02-13T17:23:07.018Z,24.17
2023-02-13T17:28:14.939Z,24.52
2023-02-13T17:33:21.816Z,26.30
2023-02-13T17:38:24.290Z,25.83
2023-02-13T17:43:27.963Z,30.83
2023-02-13T17:48:30.054Z,30.58
2023-02-13T17:53:32.615Z,30.88
2023-02-13T17:58:34.706Z,30.73
2023-02-13T18:03:36.748Z,27.77
2023-02-13T18:08:38.840Z,33.28
2023-02-13T18:13:47.856Z,35.38
2023-02-13T18:18:49.886Z,34.22
2023-02-13T18:23:53.279Z,32.65
2023-02-13T18:28:55.586Z,33.60
2023-02-13T18:33:57.966Z,42.92
2023-02-13T18:39:00.002Z,48.05
2023-02-13T18:44:02.033Z,43.58
2023-02-13T18:49:05.662Z,36.13
2023-02-13T18:54:08.106Z,34.40
2023-02-13T18:59:10.644Z,35.58
2023-02-13T19:04:12.763Z,36.45
2023-02-13T19:09:14.979Z,36.60
2023-02-13T19:14:16.984Z,38.92
2023-02-13T19:19:19.089Z,42.17
2023-02-13T19:24:21.296Z,44.53
2023-02-13T19:29:23.392Z,44.65
2023-02-13T19:34:25.494Z,37.78
2023-02-13T19:39:27.593Z,41.70
2023-02-13T19:44:29.678Z,50.97
2023-02-13T19:49:31.696Z,56.15
2023-02-13T19:54:34.092Z,52.70
2023-02-13T19:59:36.226Z,40.72
2023-02-13T20:04:39.240Z,43.05
2023-02-13T20:09:41.316Z,48.75
2023-02-13T20:14:43.362Z,48.92
2023-02-13T20:19:47.504Z,56.13
2023-02-13T20:24:49.615Z,53.75
2023-02-13T20:29:58.854Z,49.25
2023-02-13T20:35:08.735Z,44.33
2023-02-13T20:40:11.454Z,42.78
2023-02-13T20:45:13.662Z,37.92
2023-02-13T20:50:15.814Z,37.92
2023-02-13T20:55:18.063Z,37.78
2023-02-13T21:00:20.466Z,46.60
2023-02-13T21:05:22.567Z,47.95
2023-02-13T21:10:24.625Z,46.95
2023-02-13T21:15:28.221Z,43.95
2023-02-13T21:20:31.938Z,38.67
2023-02-13T21:25:34.018Z,39.33
2023-02-13T21:30:36.366Z,36.53
2023-02-13T21:35:38.436Z,34.60
2023-02-13T21:40:40.784Z,35.97
2023-02-13T21:45:42.802Z,33.80
2023-02-13T21:50:44.929Z,37.65
2023-02-13T21:55:46.974Z,36.90
2023-02-13T22:00:49.036Z,53.05
2023-02-13T22:05:51.053Z,47.97
2023-02-13T22:10:57.931Z,45.83
2023-02-13T22:16:11.856Z,42.60
2023-02-13T22:21:16.680Z,40.80
2023-02-13T22:26:26.045Z,44.63
2023-02-13T22:31:28.224Z,43.75
2023-02-13T22:36:31.134Z,46.67
2023-02-13T22:41:33.262Z,42.63
2023-02-13T22:46:35.420Z,47.95
2023-02-13T22:51:37.586Z,43.88
2023-02-13T22:56:39.703Z,40.83
2023-02-13T23:01:41.768Z,43.17
2023-02-13T23:06:43.870Z,49.58
2023-02-13T23:12:04.525Z,49.58
2023-02-13T23:17:25.263Z,43.70
2023-02-13T23:22:27.229Z,47.38
2023-02-13T23:27:29.248Z,48.60
2023-02-13T23:32:31.945Z,46.53
2023-02-13T23:37:34.028Z,42.95
2023-02-13T23:42:36.117Z,38.78
2023-02-13T23:47:38.672Z,40.00
2023-02-13T23:52:40.894Z,44.50
2023-02-13T23:57:43.653Z,41.22
